Time;durP1;ratioP1;P1;durP2;ratioP2;P2;SDS_P1;SDS_P2;PMS_P1;PMS_P2;Temp;Humidity;BMP_temperature;BMP_pressure;BME280_temperature;BME280_humidity;BME280_pressure;Samples;Min_cycle;Max_cycle;Signal;HPM_P1;HPM_P2
2022/12/26 00:01:53;;;;;;;40.17;17.02;;;;;;;9.76;56.64;100943.31;7391103;19;20020;-58
2022/12/26 00:04:20;;;;;;;34.53;15.63;;;;;;;9.69;56.97;100937.59;7391223;19;20002;-58
2022/12/26 00:06:46;;;;;;;36.45;16.38;;;;;;;9.71;56.64;100927.94;7392879;19;20006;-58
2022/12/26 00:09:12;;;;;;;31.33;16.35;;;;;;;9.75;56.61;100920.72;7391122;19;20476;-58
2022/12/26 00:11:37;;;;;;;43.55;18.52;;;;;;;9.75;56.68;100917.97;7392640;19;20002;-58
2022/12/26 00:14:06;;;;;;;34.75;16.38;;;;;;;9.72;56.61;100926.03;7392198;19;20003;-58
2022/12/26 00:16:33;;;;;;;33.83;17.05;;;;;;;9.74;56.75;100938.19;7392111;19;19999;-58
2022/12/26 00:18:59;;;;;;;40.30;17.15;;;;;;;9.75;56.76;100949.88;7395741;19;20070;-57
2022/12/26 00:21:26;;;;;;;32.20;16.52;;;;;;;9.79;56.32;100945.38;7394561;19;20092;-57
2022/12/26 00:23:54;;;;;;;30.40;16.13;;;;;;;9.76;56.43;100940.56;7395909;19;20099;-58
2022/12/26 00:26:22;;;;;;;40.90;17.63;;;;;;;9.70;56.74;100936.44;7397183;19;20003;-58
2022/12/26 00:28:48;;;;;;;37.95;16.58;;;;;;;9.70;56.92;100929.09;7395427;19;19994;-58
2022/12/26 00:31:23;;;;;;;50.70;19.73;;;;;;;9.76;56.43;100921.50;7396347;19;20062;-57
2022/12/26 00:33:49;;;;;;;48.40;19.02;;;;;;;9.84;56.33;100915.19;7394615;19;20401;-58
2022/12/26 00:36:21;;;;;;;44.55;17.95;;;;;;;9.77;56.65;100914.94;7393105;19;20007;-57
2022/12/26 00:38:47;;;;;;;59.25;19.80;;;;;;;9.77;56.50;100925.84;7393767;19;20007;-57
2022/12/26 00:41:14;;;;;;;58.83;18.55;;;;;;;9.80;56.73;100930.59;7396376;19;20061;-58
2022/12/26 00:43:42;;;;;;;66.43;17.90;;;;;;;9.80;56.50;100925.97;7394792;19;19997;-57
2022/12/26 00:46:08;;;;;;;41.50;17.60;;;;;;;9.82;56.26;100925.63;7396011;19;20078;-57
2022/12/26 00:48:34;;;;;;;43.20;16.15;;;;;;;9.79;56.57;100939.91;7393891;19;19994;-57
2022/12/26 00:51:00;;;;;;;45.40;17.45;;;;;;;9.77;56.58;100947.63;7395534;19;20032;-56
2022/12/26 00:53:27;;;;;;;38.03;15.52;;;;;;;9.77;56.44;100947.63;7394024;19;19991;-58
2022/12/26 00:55:53;;;;;;;47.05;15.23;;;;;;;9.73;56.49;100941.22;7395137;19;19994;-58
2022/12/26 00:58:20;;;;;;;47.00;16.40;;;;;;;9.72;56.70;100945.09;7392525;19;20014;-58
2022/12/26 01:00:46;;;;;;;52.22;15.95;;;;;;;9.75;56.66;100933.53;7393105;19;20460;-58
2022/12/26 01:03:19;;;;;;;57.75;15.45;;;;;;;9.76;56.61;100932.41;7393967;19;20015;-58
2022/12/26 01:05:50;;;;;;;32.80;14.40;;;;;;;9.73;56.72;100936.56;7393782;19;20023;-58
2022/12/26 01:08:17;;;;;;;46.88;15.98;;;;;;;9.79;56.71;100935.25;7394372;19;20282;-58
2022/12/26 01:10:45;;;;;;;35.40;14.30;;;;;;;9.85;56.28;100944.03;7395441;19;19991;-58
2022/12/26 01:13:11;;;;;;;40.70;15.40;;;;;;;9.74;56.56;100937.38;7391915;19;20016;-58
2022/12/26 01:15:37;;;;;;;42.67;14.63;;;;;;;9.72;56.97;100928.75;7394592;19;20338;-57
2022/12/26 01:18:04;;;;;;;32.90;15.45;;;;;;;9.79;56.82;100932.53;7393886;19;20023;-57
2022/12/26 01:20:30;;;;;;;29.15;14.40;;;;;;;9.79;56.73;100931.75;7395019;19;19991;-57
2022/12/26 01:22:55;;;;;;;34.33;15.55;;;;;;;9.86;56.52;100933.94;7393504;19;20025;-57
2022/12/26 01:25:22;;;;;;;29.95;14.32;;;;;;;9.83;56.52;100935.38;7395131;19;19999;-57
2022/12/26 01:27:50;;;;;;;28.75;13.82;;;;;;;9.82;56.63;100939.25;7395849;19;20058;-57
2022/12/26 01:30:16;;;;;;;24.88;13.15;;;;;;;9.80;56.51;100925.97;7401613;19;20459;-57
2022/12/26 01:32:42;;;;;;;26.38;13.38;;;;;;;9.84;56.18;100930.75;7401256;19;20315;-58
2022/12/26 01:35:08;;;;;;;25.90;12.73;;;;;;;9.84;56.45;100936.19;7401114;19;19990;-57
2022/12/26 01:37:34;;;;;;;28.00;14.63;;;;;;;9.79;56.36;100940.72;7399438;19;20010;-58
2022/12/26 01:40:00;;;;;;;29.92;14.70;;;;;;;9.82;56.88;100933.81;7398760;19;20011;-57
2022/12/26 01:42:34;;;;;;;25.98;13.48;;;;;;;9.79;56.24;100926.28;7401705;19;20015;-57
2022/12/26 01:45:05;;;;;;;27.42;13.65;;;;;;;9.77;56.58;100934.00;7400399;19;20003;-57
2022/12/26 01:48:00;;;;;;;24.33;12.35;;;;;;;9.74;56.72;100938.19;7401091;19;20010;-57
2022/12/26 01:50:45;;;;;;;22.98;12.70;;;;;;;9.77;56.67;100936.72;7399264;19;19995;-57
2022/12/26 01:53:28;;;;;;;23.77;12.30;;;;;;;9.86;56.41;100928.47;7401638;19;19994;-58
2022/12/26 01:56:00;;;;;;;22.85;12.60;;;;;;;9.82;56.53;100937.31;7399348;19;20003;-58
2022/12/26 01:58:34;;;;;;;24.02;12.80;;;;;;;9.76;56.48;100946.03;7400778;19;19999;-57
2022/12/26 02:01:03;;;;;;;23.17;12.02;;;;;;;9.77;56.51;100947.63;7400732;19;20035;-58
2022/12/26 02:06:15;;;;;;;22.42;11.63;;;;;;;9.80;56.73;100957.84;7400972;19;20002;-57
2022/12/26 02:08:43;;;;;;;23.90;12.38;;;;;;;9.81;56.49;100948.56;7399381;19;20025;-58
2022/12/26 02:11:27;;;;;;;24.13;12.50;;;;;;;9.85;56.52;100952.22;7396399;19;20083;-58
2022/12/26 02:13:53;;;;;;;23.38;11.93;;;;;;;9.94;56.28;100954.88;7395005;19;20010;-59
2022/12/26 02:16:19;;;;;;;25.05;13.00;;;;;;;9.95;56.45;100949.09;7393061;19;20003;-58
2022/12/26 02:18:45;;;;;;;26.25;12.85;;;;;;;9.92;56.40;100944.31;7393574;19;20013;-58
2022/12/26 02:21:32;;;;;;;27.80;13.93;;;;;;;9.93;56.37;100945.88;7396362;19;19999;-58
2022/12/26 02:24:23;;;;;;;26.95;13.25;;;;;;;9.94;56.19;100952.16;7392898;19;19999;-59
2022/12/26 02:27:03;;;;;;;26.65;13.32;;;;;;;9.91;56.41;100953.59;7396519;19;20007;-59
2022/12/26 02:30:00;;;;;;;31.50;14.27;;;;;;;9.90;56.33;100952.03;7393785;19;20006;-58
2022/12/26 02:32:35;;;;;;;34.42;15.13;;;;;;;9.89;56.32;100955.88;7395487;19;20003;-58
2022/12/26 02:35:22;;;;;;;31.58;14.40;;;;;;;9.84;56.59;100950.63;7396320;19;20006;-58
2022/12/26 02:38:20;;;;;;;34.88;15.75;;;;;;;9.94;56.47;100952.94;7395563;19;20419;-59
2022/12/26 02:40:57;;;;;;;37.22;15.93;;;;;;;9.96;56.36;100950.66;7394495;19;20011;-58
2022/12/26 02:43:59;;;;;;;33.63;15.50;;;;;;;9.98;56.24;100945.72;7396297;19;20011;-58
2022/12/26 03:13:11;;;;;;;37.92;18.33;;;;;;;9.88;56.47;100946.09;7394551;19;20010;-59
2022/12/26 03:18:34;;;;;;;32.78;16.40;;;;;;;9.93;56.37;100942.38;7393659;19;20027;-58
2022/12/26 03:21:02;;;;;;;31.33;15.40;;;;;;;9.97;56.26;100941.38;7395358;19;19995;-58
2022/12/26 03:23:29;;;;;;;30.23;15.25;;;;;;;9.93;56.13;100937.69;7394139;19;20020;-58
2022/12/26 03:28:46;;;;;;;27.02;14.88;;;;;;;10.00;55.93;100946.16;7391296;19;20009;-58
2022/12/26 03:31:14;;;;;;;28.08;14.73;;;;;;;10.06;55.94;100948.69;7394857;19;19991;-58
2022/12/26 03:36:39;;;;;;;26.95;14.02;;;;;;;9.99;56.18;100960.91;7392481;19;20019;-58
2022/12/26 04:19:22;;;;;;;25.52;13.13;;;;;;;10.04;56.09;100950.94;7390086;19;20011;-58
2022/12/26 04:21:04;;;;;;;23.15;11.73;;;;;;;9.98;56.49;100953.06;7392557;19;20006;-58
2022/12/26 04:46:30;;;;;;;17.60;9.77;;;;;;;10.12;56.15;100971.91;7387322;19;20002;-58
2022/12/26 04:51:41;;;;;;;16.70;9.75;;;;;;;10.12;56.09;100969.19;7390858;19;20006;-58
2022/12/26 04:54:08;;;;;;;18.48;9.98;;;;;;;10.11;56.21;100973.03;7390992;19;20006;-59
2022/12/26 04:56:34;;;;;;;15.13;9.13;;;;;;;10.13;56.07;100966.09;7390528;19;20026;-59
2022/12/26 04:58:59;;;;;;;16.02;9.10;;;;;;;10.06;56.20;100959.59;7388281;19;20367;-59
2022/12/26 05:09:42;;;;;;;19.65;10.77;;;;;;;10.04;56.42;100986.41;7391522;19;20002;-58
2022/12/26 05:12:08;;;;;;;21.48;11.77;;;;;;;10.10;56.37;100982.31;7392162;19;20029;-58
2022/12/26 05:14:42;;;;;;;21.58;11.48;;;;;;;10.14;56.16;100983.28;7388328;19;20003;-59
2022/12/26 05:31:00;;;;;;;28.60;15.80;;;;;;;10.18;56.24;100956.91;7391520;19;20020;-58
2022/12/26 05:36:12;;;;;;;25.35;15.82;;;;;;;10.11;56.56;100967.56;7389621;19;19998;-58
2022/12/26 05:38:38;;;;;;;25.65;14.27;;;;;;;10.21;56.37;100961.69;7388918;19;20023;-58
2022/12/26 05:41:04;;;;;;;25.00;14.52;;;;;;;10.25;55.87;100954.47;7390918;19;19996;-58
2022/12/26 05:43:30;;;;;;;23.63;14.05;;;;;;;10.20;56.30;100962.81;7389653;19;20077;-58
2022/12/26 05:45:57;;;;;;;22.90;13.55;;;;;;;10.16;56.28;100964.63;7389848;19;20011;-59
2022/12/26 05:48:23;;;;;;;23.88;14.43;;;;;;;10.19;56.23;100966.69;7388885;19;20002;-58
2022/12/26 05:50:49;;;;;;;22.35;13.38;;;;;;;10.17;56.43;100952.59;7389743;19;20016;-58
2022/12/26 05:53:14;;;;;;;21.83;13.45;;;;;;;10.04;56.84;100954.47;7390183;19;20018;-59
2022/12/26 05:55:40;;;;;;;23.42;13.43;;;;;;;10.05;56.72;100953.34;7388409;19;20002;-58
2022/12/26 05:58:06;;;;;;;20.75;13.60;;;;;;;10.11;56.49;100951.19;7389834;19;19998;-58
2022/12/26 06:00:32;;;;;;;20.98;13.23;;;;;;;10.14;56.31;100958.72;7389100;19;20459;-58
2022/12/26 06:02:59;;;;;;;22.88;13.18;;;;;;;10.07;56.40;100967.44;7389355;19;19995;-58
2022/12/26 06:05:25;;;;;;;22.33;13.40;;;;;;;10.07;56.26;100963.91;7387667;19;19995;-59
2022/12/26 06:07:51;;;;;;;21.67;13.15;;;;;;;10.06;56.49;100976.75;7389476;19;20085;-59
2022/12/26 06:10:25;;;;;;;21.85;13.23;;;;;;;10.15;56.30;100976.66;7388046;19;20091;-58
2022/12/26 06:12:52;;;;;;;22.40;13.40;;;;;;;10.05;56.84;100974.34;7387627;19;20014;-58
2022/12/26 06:15:18;;;;;;;23.35;13.38;;;;;;;10.19;56.49;100980.34;7392280;19;20003;-58
2022/12/26 06:17:44;;;;;;;23.00;13.93;;;;;;;10.25;56.17;100979.00;7396374;19;20074;-58
2022/12/26 06:20:10;;;;;;;24.40;13.95;;;;;;;10.25;56.07;100978.19;7396508;19;20329;-59
2022/12/26 06:22:35;;;;;;;22.90;13.40;;;;;;;10.26;56.09;100975.13;7394715;19;20007;-58
2022/12/26 06:25:01;;;;;;;24.33;14.73;;;;;;;10.19;56.25;100969.44;7396478;19;20002;-58
2022/12/26 06:27:27;;;;;;;24.60;14.27;;;;;;;10.22;55.97;100984.31;7397127;19;20023;-58
2022/12/26 06:29:53;;;;;;;21.33;13.93;;;;;;;10.10;56.76;100991.31;7395998;19;20001;-58
2022/12/26 06:32:18;;;;;;;24.33;14.20;;;;;;;10.17;56.36;100993.53;7395512;19;20118;-58
2022/12/26 06:34:44;;;;;;;24.38;14.75;;;;;;;10.22;56.15;100996.03;7396239;19;20040;-58
2022/12/26 06:37:10;;;;;;;25.33;15.18;;;;;;;10.26;56.19;100994.22;7393911;19;20006;-58
2022/12/26 06:39:36;;;;;;;24.95;14.68;;;;;;;10.19;56.27;100996.69;7392993;19;20015;-58
2022/12/26 06:42:01;;;;;;;26.20;15.40;;;;;;;10.11;56.46;101000.28;7396446;19;19994;-58
2022/12/26 06:44:27;;;;;;;25.00;15.25;;;;;;;10.18;56.27;101000.56;7395890;19;19995;-59
2022/12/26 06:46:53;;;;;;;23.77;13.85;;;;;;;10.20;56.28;100995.56;7395918;19;20358;-58
2022/12/26 06:49:18;;;;;;;23.85;14.35;;;;;;;10.18;56.28;101003.28;7393653;19;19994;-59
2022/12/26 06:51:44;;;;;;;25.75;15.27;;;;;;;10.29;56.07;101007.22;7395715;19;19994;-58
2022/12/26 06:54:10;;;;;;;27.25;15.15;;;;;;;10.28;55.88;101007.53;7393455;19;20312;-59
2022/12/26 06:56:36;;;;;;;27.15;15.77;;;;;;;10.32;56.03;101012.00;7393548;19;19997;-59
2022/12/26 06:59:04;;;;;;;26.25;15.50;;;;;;;10.27;56.19;101006.75;7391412;19;19994;-59
2022/12/26 07:01:32;;;;;;;27.13;15.40;;;;;;;10.04;56.83;101000.03;7396228;19;20009;-59
2022/12/26 07:03:59;;;;;;;26.30;15.50;;;;;;;10.08;56.67;101000.97;7393376;19;20003;-59
2022/12/26 07:06:33;;;;;;;25.77;15.30;;;;;;;10.12;56.40;101002.69;7393727;19;20026;-59
2022/12/26 07:09:02;;;;;;;27.05;15.75;;;;;;;10.18;56.26;101009.56;7393516;19;20046;-59
2022/12/26 07:11:31;;;;;;;25.48;14.55;;;;;;;10.20;56.28;101003.75;7393371;19;20006;-59
2022/12/26 07:13:57;;;;;;;24.85;14.95;;;;;;;10.24;56.27;100999.22;7395184;19;20016;-59
2022/12/26 07:16:23;;;;;;;26.33;14.70;;;;;;;10.26;56.15;100996.94;7393850;19;19999;-58
2022/12/26 07:18:51;;;;;;;27.48;15.65;;;;;;;10.22;56.14;101003.41;7391901;19;20303;-59
2022/12/26 07:21:17;;;;;;;26.08;14.82;;;;;;;10.16;56.20;101002.81;7394928;19;20102;-59
2022/12/26 07:23:44;;;;;;;25.25;15.15;;;;;;;10.19;56.18;101000.22;7393078;19;20002;-59
2022/12/26 07:26:10;;;;;;;23.92;14.68;;;;;;;10.16;56.30;100997.38;7393716;19;19990;-59
2022/12/26 07:28:35;;;;;;;26.45;15.02;;;;;;;10.17;56.12;100993.53;7393786;19;20026;-59
2022/12/26 07:31:02;;;;;;;24.65;14.88;;;;;;;10.14;56.35;100984.06;7395320;19;20462;-59
2022/12/26 07:33:29;;;;;;;23.77;14.35;;;;;;;10.21;56.14;100986.25;7392447;19;20006;-58
2022/12/26 07:36:05;;;;;;;23.77;13.80;;;;;;;10.14;56.21;100977.81;7393516;19;20413;-58
2022/12/26 07:38:32;;;;;;;24.67;14.27;;;;;;;10.16;56.06;100970.88;7391081;19;20006;-59
2022/12/26 07:41:56;;;;;;;23.67;13.48;;;;;;;10.19;55.88;100966.69;7394301;19;20002;-59
2022/12/26 07:43:47;;;;;;;23.70;12.85;;;;;;;10.16;55.95;100975.53;7392975;19;19994;-59
2022/12/26 07:46:12;;;;;;;23.42;13.82;;;;;;;10.24;55.63;100971.16;7393793;19;20088;-59
2022/12/26 07:48:38;;;;;;;21.67;12.75;;;;;;;10.31;55.50;100969.47;7392548;19;20006;-59
2022/12/26 07:51:04;;;;;;;22.77;13.18;;;;;;;10.29;55.47;100970.94;7393720;19;20341;-58
2022/12/26 07:53:30;;;;;;;22.25;12.85;;;;;;;10.37;55.33;100970.88;7391306;19;20003;-58
2022/12/26 07:55:59;;;;;;;22.17;12.90;;;;;;;10.28;55.51;100981.03;7391222;19;19994;-58
2022/12/26 07:58:25;;;;;;;24.15;13.60;;;;;;;10.37;55.30;100972.81;7392669;19;20009;-58
2022/12/26 08:00:51;;;;;;;21.98;12.93;;;;;;;10.29;55.37;100974.47;7393831;19;20010;-58
2022/12/26 08:03:17;;;;;;;21.45;12.35;;;;;;;10.36;55.28;100973.91;7392763;19;20007;-58
2022/12/26 08:05:48;;;;;;;21.40;12.70;;;;;;;10.34;55.43;100987.09;7393256;19;20460;-58
2022/12/26 08:08:14;;;;;;;22.10;11.60;;;;;;;10.37;55.32;100986.44;7390900;19;20017;-58
2022/12/26 08:10:39;;;;;;;24.00;13.00;;;;;;;10.24;55.50;100998.44;7393142;19;20022;-58
2022/12/26 08:13:05;;;;;;;23.75;12.40;;;;;;;10.29;55.56;100998.22;7393199;19;20003;-58
2022/12/26 08:15:31;;;;;;;22.52;12.77;;;;;;;10.25;55.45;101006.28;7392618;19;20008;-58
2022/12/26 08:17:57;;;;;;;21.25;11.93;;;;;;;10.28;55.50;101004.81;7392376;19;20439;-58
2022/12/26 08:20:23;;;;;;;22.83;11.95;;;;;;;10.26;55.52;101007.88;7392520;19;20005;-58
2022/12/26 08:22:50;;;;;;;21.08;11.38;;;;;;;10.33;55.36;101008.13;7393423;19;20046;-58
2022/12/26 08:25:16;;;;;;;22.73;12.43;;;;;;;10.36;54.94;101009.41;7390686;19;20006;-59
2022/12/26 08:27:42;;;;;;;22.10;12.10;;;;;;;10.21;55.68;101007.28;7393022;19;20027;-58
2022/12/26 08:30:08;;;;;;;21.73;12.10;;;;;;;10.35;54.97;101003.16;7390815;19;19999;-58
2022/12/26 08:32:34;;;;;;;22.63;11.88;;;;;;;10.34;55.17;101006.22;7392516;19;20466;-58
2022/12/26 08:35:03;;;;;;;22.83;12.32;;;;;;;10.37;54.89;100997.34;7390551;19;20071;-58
2022/12/26 08:37:29;;;;;;;20.25;11.02;;;;;;;10.28;55.16;100996.63;7388796;19;20320;-58
2022/12/26 08:39:55;;;;;;;20.92;11.65;;;;;;;10.40;55.01;100976.78;7389239;19;20017;-58
2022/12/26 08:42:21;;;;;;;20.63;11.38;;;;;;;10.42;54.60;100996.31;7390123;19;20102;-58
2022/12/26 08:44:47;;;;;;;20.90;11.15;;;;;;;10.47;54.53;101013.31;7392754;19;19999;-58
2022/12/26 08:47:13;;;;;;;23.58;12.00;;;;;;;10.49;54.54;101011.03;7390942;19;20010;-58
2022/12/26 08:49:40;;;;;;;20.35;10.65;;;;;;;10.50;54.62;101011.81;7388711;19;20002;-58
2022/12/26 08:52:06;;;;;;;23.55;11.43;;;;;;;10.35;54.70;101019.53;7392335;19;19995;-58
2022/12/26 08:54:33;;;;;;;23.60;12.40;;;;;;;10.11;55.30;101011.22;7391187;19;20013;-58
2022/12/26 08:56:58;;;;;;;22.42;11.57;;;;;;;10.09;55.49;101014.25;7390115;19;20003;-58
2022/12/26 08:59:34;;;;;;;22.20;11.63;;;;;;;10.17;55.41;101012.63;7389731;19;20031;-58
2022/12/26 09:01:59;;;;;;;24.17;12.23;;;;;;;10.13;55.55;101015.19;7389623;19;20006;-58
2022/12/26 09:04:25;;;;;;;23.92;11.68;;;;;;;10.15;55.07;101012.13;7390421;19;20038;-58
2022/12/26 09:06:51;;;;;;;23.70;12.20;;;;;;;10.22;55.06;101019.78;7392060;19;19995;-59
2022/12/26 09:09:17;;;;;;;20.27;11.40;;;;;;;10.36;54.90;101017.56;7389843;19;20340;-59
2022/12/26 09:11:42;;;;;;;21.10;11.60;;;;;;;10.09;55.65;101025.19;7391065;19;20070;-59
2022/12/26 09:14:09;;;;;;;21.02;11.05;;;;;;;10.27;54.97;101011.38;7388896;19;20031;-59
2022/12/26 09:16:41;;;;;;;22.67;11.23;;;;;;;10.10;55.37;101015.06;7387763;19;20369;-57
2022/12/26 09:19:11;;;;;;;22.55;11.55;;;;;;;10.31;54.74;101015.84;7389658;19;20097;-59
2022/12/26 09:21:37;;;;;;;21.95;12.70;;;;;;;10.26;55.09;101018.78;7388589;19;20470;-56
2022/12/26 09:24:08;;;;;;;22.20;11.77;;;;;;;10.12;55.28;101024.50;7390949;19;19998;-57
2022/12/26 09:26:35;;;;;;;23.85;12.50;;;;;;;10.21;54.85;101026.38;7388529;19;20013;-57
2022/12/26 09:29:02;;;;;;;22.63;12.18;;;;;;;10.13;55.01;101022.56;7387245;19;20509;-57
2022/12/26 09:31:30;;;;;;;22.10;12.85;;;;;;;10.09;55.20;101013.47;7389928;19;20002;-57
2022/12/26 09:33:56;;;;;;;22.45;12.05;;;;;;;10.12;55.02;101007.34;7391041;19;20006;-57
2022/12/26 09:36:30;;;;;;;24.67;12.43;;;;;;;10.07;55.43;101007.53;7389124;19;20030;-57
2022/12/26 09:39:03;;;;;;;22.08;12.88;;;;;;;9.99;55.49;101001.03;7388980;19;20027;-58
2022/12/26 09:41:58;;;;;;;22.55;12.60;;;;;;;10.09;55.04;100995.16;7390296;19;20029;-59
2022/12/26 09:44:39;;;;;;;25.70;13.90;;;;;;;9.81;55.84;100998.41;7387867;19;20019;-58
2022/12/26 09:47:20;;;;;;;20.58;11.98;;;;;;;9.94;55.64;101002.03;7390425;19;20003;-59
2022/12/26 09:49:58;;;;;;;23.20;13.05;;;;;;;10.12;55.06;101001.91;7393308;19;20027;-59
2022/12/26 09:52:48;;;;;;;21.15;11.93;;;;;;;10.05;54.60;101004.34;7395196;19;20576;-59
2022/12/26 09:55:28;;;;;;;22.20;12.43;;;;;;;10.15;55.06;100993.84;7394985;19;19995;-59
2022/12/26 09:57:58;;;;;;;19.30;11.10;;;;;;;10.32;54.43;100994.84;7394537;19;20477;-59
2022/12/26 10:00:32;;;;;;;24.38;12.77;;;;;;;10.45;54.06;100987.47;7397734;19;20010;-59
2022/12/26 10:02:59;;;;;;;22.70;11.23;;;;;;;10.55;53.78;100981.59;7394640;19;20004;-59
2022/12/26 10:05:40;;;;;;;20.75;11.52;;;;;;;10.45;53.76;100984.75;7397404;19;20014;-59
2022/12/26 10:08:39;;;;;;;21.40;11.85;;;;;;;10.56;53.25;100980.47;7395668;19;20002;-57
2022/12/26 10:11:22;;;;;;;19.77;11.48;;;;;;;10.57;53.70;100982.06;7398637;19;20002;-57
2022/12/26 10:13:56;;;;;;;20.38;10.63;;;;;;;10.54;53.63;100991.72;7397160;19;19991;-57
2022/12/26 10:16:51;;;;;;;19.38;10.13;;;;;;;10.58;53.55;100986.38;7395311;19;20002;-57
2022/12/26 10:19:47;;;;;;;18.67;10.32;;;;;;;10.61;53.31;100980.25;7395039;19;20016;-58
2022/12/26 10:22:39;;;;;;;17.70;9.85;;;;;;;10.38;53.96;100971.66;7394454;19;19998;-58
2022/12/26 10:25:16;;;;;;;20.52;10.98;;;;;;;10.78;53.41;100967.59;7394688;19;20005;-58
2022/12/26 10:27:47;;;;;;;19.95;10.00;;;;;;;10.71;53.33;100968.91;7396299;19;19999;-59
2022/12/26 10:30:23;;;;;;;17.80;9.10;;;;;;;10.80;52.81;100968.84;7394279;19;20473;-58
2022/12/26 10:32:59;;;;;;;16.67;8.70;;;;;;;10.91;52.64;100955.56;7393267;19;20003;-59
2022/12/26 10:35:44;;;;;;;16.67;9.07;;;;;;;10.84;52.63;100960.78;7396849;19;20473;-59
2022/12/26 10:38:14;;;;;;;;;;;;;;;10.67;52.86;100957.06;7396353;19;20494;-58
2022/12/26 10:40:43;;;;;;;15.43;9.10;;;;;;;10.81;53.20;100956.00;7393942;19;20305;-58
2022/12/26 10:43:31;;;;;;;15.63;7.97;;;;;;;10.66;52.97;100960.94;7395534;19;20031;-58
2022/12/26 10:45:57;;;;;;;15.73;8.25;;;;;;;10.92;52.62;100965.31;7396997;19;20006;-58
2022/12/26 10:48:26;;;;;;;15.93;7.50;;;;;;;10.96;52.46;100963.53;7395240;19;20464;-58
2022/12/26 10:50:52;;;;;;;16.08;7.78;;;;;;;11.02;52.37;100967.63;7395761;19;20006;-58
2022/12/26 10:53:18;;;;;;;15.18;7.97;;;;;;;10.96;52.54;100968.19;7394615;19;20006;-58
2022/12/26 10:55:44;;;;;;;12.88;7.38;;;;;;;10.81;52.92;100978.63;7394824;19;20054;-58
2022/12/26 10:58:21;;;;;;;13.85;7.18;;;;;;;10.89;52.63;100963.28;7394335;19;20491;-58
2022/12/26 11:00:47;;;;;;;14.40;6.57;;;;;;;10.96;52.62;100966.25;7392574;19;20003;-58
2022/12/26 11:03:18;;;;;;;13.48;7.18;;;;;;;10.97;52.58;100965.13;7395205;19;20357;-58
2022/12/26 11:05:50;;;;;;;15.95;7.55;;;;;;;11.07;52.43;100955.66;7395845;19;20009;-58
2022/12/26 11:08:31;;;;;;;12.40;6.68;;;;;;;11.01;52.26;100957.03;7393597;19;20007;-58
2022/12/26 11:11:08;;;;;;;14.43;6.55;;;;;;;10.95;52.55;100961.13;7392963;19;20042;-58
2022/12/26 11:13:39;;;;;;;12.50;6.72;;;;;;;10.84;52.66;100956.09;7392074;19;20030;-58
2022/12/26 11:16:06;;;;;;;15.73;6.72;;;;;;;10.85;53.10;100965.09;7394016;19;20007;-59
2022/12/26 11:18:47;;;;;;;13.98;5.97;;;;;;;10.83;52.92;100970.09;7391425;19;19999;-58
2022/12/26 11:21:22;;;;;;;13.07;5.95;;;;;;;10.90;53.21;100973.06;7392826;19;20013;-58
2022/12/26 11:23:51;;;;;;;12.88;6.07;;;;;;;10.85;53.26;100971.34;7393347;19;20093;-59
2022/12/26 11:26:22;;;;;;;10.23;5.07;;;;;;;10.96;52.87;100960.78;7395047;19;20009;-58
2022/12/26 11:29:04;;;;;;;16.23;5.93;;;;;;;11.05;52.27;100971.59;7392722;19;20339;-58
2022/12/26 11:31:31;;;;;;;12.20;5.60;;;;;;;11.02;52.63;100962.16;7392264;19;20006;-58
2022/12/26 11:33:59;;;;;;;12.00;5.07;;;;;;;11.00;52.91;100953.50;7393053;19;20019;-59
2022/12/26 11:36:29;;;;;;;10.48;4.95;;;;;;;10.86;53.09;100963.97;7395149;19;20487;-58
2022/12/26 11:39:01;;;;;;;11.38;5.10;;;;;;;10.82;53.23;100957.56;7390224;19;20023;-59
2022/12/26 11:41:30;;;;;;;11.30;4.47;;;;;;;10.89;52.93;100953.16;7392943;19;20006;-58
2022/12/26 11:44:13;;;;;;;9.43;4.40;;;;;;;10.92;52.87;100951.66;7392706;19;20011;-58
2022/12/26 11:46:50;;;;;;;11.15;4.38;;;;;;;10.83;52.96;100951.78;7391842;19;20022;-58
2022/12/26 11:49:26;;;;;;;10.77;4.55;;;;;;;10.80;53.14;100954.38;7390093;19;20003;-59
2022/12/26 11:51:53;;;;;;;10.10;4.65;;;;;;;10.80;53.01;100965.31;7393720;19;19998;-58
2022/12/26 11:54:20;;;;;;;9.45;4.82;;;;;;;10.73;53.51;100950.25;7390680;19;20091;-59
2022/12/26 11:56:47;;;;;;;15.48;4.70;;;;;;;10.79;53.35;100952.81;7392258;19;20120;-59
2022/12/26 11:59:19;;;;;;;9.80;4.30;;;;;;;10.76;53.44;100970.66;7389086;19;20586;-58
2022/12/26 12:01:45;;;;;;;10.55;4.10;;;;;;;10.96;52.82;100979.91;7391456;19;20007;-58
2022/12/26 12:04:11;;;;;;;8.52;3.90;;;;;;;10.93;52.75;100969.66;7392237;19;20483;-58
2022/12/26 12:07:26;;;;;;;7.88;3.95;;;;;;;10.79;52.97;100972.72;7392209;19;20058;-58
2022/12/26 12:10:46;;;;;;;7.63;3.58;;;;;;;10.80;52.54;100982.47;7388776;19;20002;-59
2022/12/26 12:13:37;;;;;;;7.47;3.83;;;;;;;10.97;52.56;100992.44;7390069;19;19995;-58
2022/12/26 12:16:21;;;;;;;8.52;4.05;;;;;;;11.07;52.06;100992.00;7391421;19;20003;-58
2022/12/26 12:19:05;;;;;;;11.32;3.67;;;;;;;11.19;51.70;101004.84;7391911;19;20030;-58
2022/12/26 12:21:47;;;;;;;9.07;3.25;;;;;;;11.11;51.80;100997.56;7392058;19;20015;-59
2022/12/26 12:24:31;;;;;;;8.25;2.55;;;;;;;10.98;51.30;100999.47;7391434;19;20467;-59
2022/12/26 12:27:13;;;;;;;7.38;2.75;;;;;;;11.27;50.26;100994.94;7390592;19;19998;-59
2022/12/26 12:29:54;;;;;;;6.22;1.77;;;;;;;10.53;49.23;100984.66;7388357;19;19999;-59
2022/12/26 12:32:50;;;;;;;7.32;1.88;;;;;;;10.80;49.13;100992.63;7391122;19;20010;-58
2022/12/26 12:35:37;;;;;;;4.90;1.70;;;;;;;11.01;47.34;101041.72;7392255;19;20003;-59
2022/12/26 12:38:18;;;;;;;8.20;1.63;;;;;;;10.85;47.03;101016.97;7391320;19;20002;-59
2022/12/26 12:40:56;;;;;;;4.55;1.15;;;;;;;10.91;47.41;101026.56;7388251;19;20539;-59
2022/12/26 12:43:47;;;;;;;4.00;1.10;;;;;;;10.68;46.96;101037.03;7391408;19;20007;-59
2022/12/26 12:46:21;;;;;;;6.05;1.00;;;;;;;10.53;48.37;101043.91;7393069;19;19991;-58
2022/12/26 12:49:04;;;;;;;9.35;2.35;;;;;;;10.53;47.02;101050.16;7391073;19;19999;-59
2022/12/26 12:51:30;;;;;;;9.82;2.45;;;;;;;10.40;48.03;101053.19;7391129;19;20475;-59
2022/12/26 12:54:22;;;;;;;10.63;2.60;;;;;;;10.45;46.73;101063.88;7390992;19;19990;-59
2022/12/26 12:57:03;;;;;;;6.38;1.20;;;;;;;10.11;48.16;101063.81;7390633;19;19999;-59
2022/12/26 12:59:56;;;;;;;8.10;1.13;;;;;;;10.32;47.12;101073.97;7389861;19;19998;-59
2022/12/26 13:02:54;;;;;;;5.35;1.10;;;;;;;10.18;47.19;101072.28;7390200;19;20463;-59
2022/12/26 13:05:43;;;;;;;6.90;1.13;;;;;;;10.38;47.77;101067.16;7389227;19;20022;-59
2022/12/26 13:08:17;;;;;;;8.38;1.27;;;;;;;10.38;47.68;101076.16;7389239;19;20054;-59
2022/12/26 13:11:16;;;;;;;4.78;0.95;;;;;;;10.10;47.38;101067.69;7390537;19;19999;-60
2022/12/26 13:13:47;;;;;;;5.00;0.90;;;;;;;10.08;48.19;101083.56;7389047;19;20011;-59
2022/12/26 13:16:17;;;;;;;5.47;1.05;;;;;;;10.10;48.10;101069.59;7388303;19;19995;-59
2022/12/26 13:18:54;;;;;;;4.03;0.85;;;;;;;9.64;48.81;101094.72;7388449;19;19994;-59
2022/12/26 13:21:21;;;;;;;7.60;1.38;;;;;;;9.63;49.38;101125.03;7389791;19;20007;-59
2022/12/26 13:24:24;;;;;;;8.02;1.60;;;;;;;9.36;48.89;101124.28;7389893;19;20003;-58
2022/12/26 13:26:53;;;;;;;4.82;1.38;;;;;;;9.15;49.74;101135.06;7398190;19;20002;-58
2022/12/26 13:29:34;;;;;;;10.23;2.03;;;;;;;9.32;49.25;101138.91;7394124;19;20010;-58
2022/12/26 13:32:03;;;;;;;13.57;1.73;;;;;;;9.03;49.96;101129.47;7395772;19;19998;-59
2022/12/26 13:34:30;;;;;;;8.60;1.77;;;;;;;8.92;49.99;101141.84;7398183;19;20348;-59
2022/12/26 13:36:59;;;;;;;13.60;3.08;;;;;;;8.93;49.72;101167.91;7395765;19;19991;-58
2022/12/26 13:39:30;;;;;;;12.02;2.67;;;;;;;8.63;49.63;101156.88;7392999;19;20017;-59
2022/12/26 13:44:53;;;;;;;14.68;4.22;;;;;;;9.14;48.03;101179.75;7398086;19;20346;-58
2022/12/26 13:47:38;;;;;;;11.77;2.83;;;;;;;9.19;46.96;101174.16;7396717;19;20356;-59